Time;durP1;ratioP1;P1;durP2;ratioP2;P2;SDS_P1;SDS_P2;PMS_P1;PMS_P2;Temp;Humidity;BMP_temperature;BMP_pressure;BME280_temperature;BME280_humidity;BME280_pressure;Samples;Min_cycle;Max_cycle;Signal;HPM_P1;HPM_P2
2023/12/22 00:00:18;;;;;;;12.98;3.80;;;6.10;99.90;;;;;;5084084;28;20192;-45
2023/12/22 00:02:44;;;;;;;20.38;3.88;;;6.20;99.90;;;;;;5084083;28;20044;-44
2023/12/22 00:05:10;;;;;;;23.75;3.53;;;6.20;99.90;;;;;;5083988;28;20094;-45
2023/12/22 00:07:36;;;;;;;19.13;3.90;;;6.20;99.90;;;;;;5083239;28;20044;-45
2023/12/22 00:10:01;;;;;;;21.30;4.03;;;6.30;99.90;;;;;;5084738;28;20032;-46
2023/12/22 00:12:28;;;;;;;15.95;3.47;;;6.40;99.90;;;;;;5092199;28;20089;-45
2023/12/22 00:14:53;;;;;;;18.15;4.05;;;6.40;99.90;;;;;;5088315;28;20044;-46
2023/12/22 00:17:19;;;;;;;17.48;4.40;;;6.40;99.90;;;;;;5096605;28;20478;-45
2023/12/22 00:19:44;;;;;;;26.45;4.57;;;6.30;99.90;;;;;;5091569;28;20131;-46
2023/12/22 00:22:10;;;;;;;17.95;4.00;;;6.20;99.90;;;;;;5087553;28;20078;-46
2023/12/22 00:24:36;;;;;;;22.08;4.30;;;6.10;99.90;;;;;;5089523;28;20037;-47
2023/12/22 00:27:02;;;;;;;24.95;4.38;;;6.10;99.90;;;;;;5091414;28;20382;-46
2023/12/22 00:29:28;;;;;;;22.65;4.68;;;6.10;99.90;;;;;;5086176;28;20052;-45
2023/12/22 00:31:55;;;;;;;25.20;4.07;;;6.00;99.90;;;;;;5075186;28;20097;-47
2023/12/22 00:34:22;;;;;;;26.92;5.13;;;6.00;99.90;;;;;;5089688;28;20038;-46
2023/12/22 00:36:47;;;;;;;20.48;3.97;;;6.10;99.90;;;;;;5089978;28;20128;-45
2023/12/22 00:39:13;;;;;;;22.90;4.03;;;6.10;99.90;;;;;;5092822;28;20127;-45
2023/12/22 00:41:39;;;;;;;23.25;4.57;;;6.00;99.90;;;;;;5088362;28;20067;-44
2023/12/22 00:44:04;;;;;;;18.48;4.03;;;5.90;99.90;;;;;;5083100;28;20152;-47
2023/12/22 00:46:30;;;;;;;26.42;4.65;;;6.00;99.90;;;;;;5083884;28;20032;-45
2023/12/22 00:48:56;;;;;;;22.17;4.05;;;6.00;99.90;;;;;;5082772;28;20032;-46
2023/12/22 00:51:21;;;;;;;23.80;4.43;;;6.00;99.90;;;;;;5086388;28;20520;-47
2023/12/22 00:53:47;;;;;;;19.00;3.88;;;6.10;99.90;;;;;;5082036;28;20055;-45
2023/12/22 00:56:13;;;;;;;26.92;4.47;;;6.10;99.90;;;;;;5065959;28;20315;-45
2023/12/22 00:58:39;;;;;;;24.65;4.28;;;6.10;99.90;;;;;;5082765;28;20040;-46
2023/12/22 01:01:05;;;;;;;24.88;4.85;;;6.10;99.90;;;;;;5081645;28;20090;-44
2023/12/22 01:03:31;;;;;;;26.88;4.13;;;5.80;99.90;;;;;;5080034;28;20534;-46
2023/12/22 01:05:56;;;;;;;23.58;4.93;;;5.80;99.90;;;;;;5084575;28;20082;-47
2023/12/22 01:08:22;;;;;;;25.70;4.75;;;5.60;99.90;;;;;;5086513;28;20040;-44
2023/12/22 01:10:47;;;;;;;21.40;4.03;;;5.50;99.90;;;;;;5085008;28;20447;-44
2023/12/22 01:13:14;;;;;;;25.98;4.43;;;5.40;99.90;;;;;;5085221;28;20044;-44
2023/12/22 01:15:40;;;;;;;24.67;4.50;;;5.40;99.90;;;;;;5080628;28;20705;-45
2023/12/22 01:18:05;;;;;;;21.83;4.03;;;5.30;99.90;;;;;;5082569;28;20044;-46
2023/12/22 01:20:31;;;;;;;18.10;3.83;;;5.30;99.90;;;;;;5066548;28;20044;-46
2023/12/22 01:22:56;;;;;;;21.00;3.85;;;5.40;99.90;;;;;;5086150;28;20048;-46
2023/12/22 01:25:23;;;;;;;22.75;4.13;;;5.50;99.90;;;;;;5084561;28;20123;-45
2023/12/22 01:27:50;;;;;;;18.02;3.63;;;5.70;99.90;;;;;;5080537;28;20409;-45
2023/12/22 01:30:16;;;;;;;20.80;3.58;;;5.90;99.90;;;;;;5077904;28;20059;-48
2023/12/22 01:32:41;;;;;;;24.70;3.97;;;6.00;99.90;;;;;;5080011;28;20040;-46
2023/12/22 01:35:09;;;;;;;19.73;4.15;;;6.10;99.90;;;;;;5087380;28;20043;-44
2023/12/22 01:37:38;;;;;;;19.25;3.80;;;6.10;99.90;;;;;;5082571;28;20073;-48
2023/12/22 01:40:04;;;;;;;17.52;3.55;;;6.00;99.90;;;;;;5062491;28;20109;-46
2023/12/22 01:42:30;;;;;;;24.38;3.85;;;6.00;99.90;;;;;;5081580;28;20052;-47
2023/12/22 01:44:55;;;;;;;16.73;3.35;;;6.00;99.90;;;;;;5085613;28;20048;-45
2023/12/22 01:47:21;;;;;;;21.90;3.72;;;6.00;99.90;;;;;;5083811;28;20043;-47
2023/12/22 01:49:48;;;;;;;14.82;2.95;;;5.90;99.90;;;;;;5083730;28;20036;-45
2023/12/22 01:52:14;;;;;;;17.48;3.60;;;5.90;99.90;;;;;;5082342;28;20050;-46
2023/12/22 01:54:41;;;;;;;22.58;3.55;;;5.80;99.90;;;;;;5070232;28;20071;-45
2023/12/22 01:57:07;;;;;;;21.20;4.00;;;5.80;99.90;;;;;;5084289;28;20040;-45
2023/12/22 01:59:34;;;;;;;23.48;3.97;;;5.70;99.90;;;;;;5079769;28;20128;-45
2023/12/22 02:02:03;;;;;;;16.40;3.83;;;5.80;99.90;;;;;;5081188;28;20082;-45
2023/12/22 02:04:30;;;;;;;24.35;4.03;;;5.80;99.90;;;;;;5080672;28;20032;-45
2023/12/22 02:07:00;;;;;;;32.28;4.95;;;5.80;99.90;;;;;;5084370;28;20115;-45
2023/12/22 02:09:26;;;;;;;20.48;4.38;;;5.80;99.90;;;;;;5081997;28;20112;-45
2023/12/22 02:11:52;;;;;;;27.67;3.90;;;5.80;99.90;;;;;;5079731;28;20043;-47
2023/12/22 02:14:17;;;;;;;17.95;3.58;;;5.80;99.90;;;;;;5085699;28;20123;-45
2023/12/22 02:16:55;;;;;;;19.65;3.45;;;;;;;;;;5082862;28;20113;-44
2023/12/22 02:19:39;;;;;;;17.98;3.45;;;5.60;99.90;;;;;;5083143;28;20040;-45
2023/12/22 02:22:09;;;;;;;22.98;3.63;;;5.60;99.90;;;;;;5082524;28;20050;-46
2023/12/22 02:24:34;;;;;;;22.33;3.55;;;5.60;99.90;;;;;;5082179;28;20051;-47
2023/12/22 02:27:09;;;;;;;15.90;3.28;;;5.60;99.90;;;;;;5068366;28;20036;-46
2023/12/22 02:29:46;;;;;;;17.48;3.17;;;5.70;99.90;;;;;;5080788;28;20062;-46
2023/12/22 02:32:19;;;;;;;16.77;2.90;;;5.80;99.90;;;;;;5081641;28;20036;-45
2023/12/22 02:34:48;;;;;;;13.80;2.63;;;5.90;99.90;;;;;;5065816;28;20063;-44
2023/12/22 02:37:15;;;;;;;15.13;2.75;;;6.00;99.90;;;;;;5079905;28;20493;-45
2023/12/22 02:39:43;;;;;;;10.65;2.08;;;5.90;99.90;;;;;;5078745;28;20044;-45
2023/12/22 02:42:09;;;;;;;17.83;3.45;;;6.00;99.90;;;;;;5079420;28;20044;-44
2023/12/22 02:44:35;;;;;;;13.15;2.75;;;6.00;99.90;;;;;;5087736;28;20485;-44
2023/12/22 02:47:01;;;;;;;12.75;2.55;;;6.00;99.90;;;;;;5075032;28;20074;-46
2023/12/22 02:49:26;;;;;;;14.05;2.90;;;5.90;99.90;;;;;;5080620;28;20062;-44
2023/12/22 02:51:52;;;;;;;9.40;2.03;;;5.80;99.90;;;;;;5081434;28;20044;-46
2023/12/22 02:54:17;;;;;;;10.23;2.42;;;5.70;99.90;;;;;;5081198;28;20508;-46
2023/12/22 02:56:46;;;;;;;11.15;1.83;;;5.50;99.90;;;;;;5082094;28;20036;-45
2023/12/22 02:59:11;;;;;;;16.02;2.58;;;5.40;99.90;;;;;;5078337;28;20040;-44
2023/12/22 03:01:37;;;;;;;17.05;2.55;;;5.30;99.90;;;;;;5077240;28;20742;-45
2023/12/22 03:04:02;;;;;;;12.02;2.25;;;5.30;99.90;;;;;;5079485;28;20118;-44
2023/12/22 03:06:28;;;;;;;15.10;2.22;;;5.30;99.90;;;;;;5080364;28;20343;-46
2023/12/22 03:08:54;;;;;;;13.10;2.50;;;5.40;99.90;;;;;;5079927;28;20122;-45
2023/12/22 03:11:19;;;;;;;14.48;2.47;;;5.50;99.90;;;;;;5080013;28;21679;-45
2023/12/22 03:13:45;;;;;;;13.52;2.70;;;5.50;99.90;;;;;;5066084;28;20098;-46
2023/12/22 03:16:10;;;;;;;14.88;2.60;;;5.60;99.90;;;;;;5080444;28;20048;-46
2023/12/22 03:18:39;;;;;;;11.02;2.80;;;5.60;99.90;;;;;;5078694;28;20032;-45
2023/12/22 03:21:05;;;;;;;11.68;2.25;;;5.60;99.90;;;;;;5078902;28;20424;-45
2023/12/22 03:23:30;;;;;;;9.80;2.08;;;5.60;99.90;;;;;;5064483;28;20400;-45
2023/12/22 03:25:56;;;;;;;12.45;1.85;;;5.50;99.90;;;;;;5075949;28;20039;-44
2023/12/22 03:28:21;;;;;;;9.02;1.58;;;5.40;99.90;;;;;;5079077;28;20086;-44
2023/12/22 03:30:47;;;;;;;7.18;1.00;;;5.40;99.90;;;;;;5081693;28;20036;-44
2023/12/22 03:33:13;;;;;;;5.30;1.10;;;5.30;99.90;;;;;;5079267;28;20044;-48
2023/12/22 03:35:38;;;;;;;5.10;1.08;;;5.10;99.90;;;;;;5080428;28;20072;-46
2023/12/22 03:38:04;;;;;;;5.43;1.35;;;5.10;99.90;;;;;;5083167;28;20040;-48
2023/12/22 03:40:30;;;;;;;3.28;0.88;;;5.00;99.90;;;;;;5078006;28;20481;-45
2023/12/22 03:42:56;;;;;;;6.43;0.90;;;4.90;99.90;;;;;;5083754;28;20036;-46
2023/12/22 03:45:21;;;;;;;3.75;0.93;;;4.90;99.90;;;;;;5081746;28;20484;-45
2023/12/22 03:47:47;;;;;;;5.05;1.15;;;4.80;99.90;;;;;;5079778;28;20059;-44
2023/12/22 03:50:12;;;;;;;5.60;1.30;;;4.70;99.90;;;;;;5079126;28;20519;-45
2023/12/22 03:52:38;;;;;;;4.45;0.90;;;4.70;99.90;;;;;;5081876;28;20032;-43
2023/12/22 03:55:04;;;;;;;6.53;1.15;;;4.60;99.90;;;;;;5077424;28;20044;-45
2023/12/22 03:57:30;;;;;;;4.25;0.95;;;4.50;99.90;;;;;;5083505;28;20373;-45
2023/12/22 03:59:55;;;;;;;3.63;0.90;;;4.50;99.90;;;;;;5080163;28;20109;-45
2023/12/22 04:02:21;;;;;;;8.70;1.23;;;4.60;99.90;;;;;;5076318;28;20043;-45
2023/12/22 04:04:46;;;;;;;6.30;1.20;;;4.60;99.90;;;;;;5076890;28;20486;-46
2023/12/22 04:07:12;;;;;;;7.05;1.20;;;4.50;99.90;;;;;;5079255;28;20040;-45
2023/12/22 04:09:38;;;;;;;6.20;0.95;;;4.40;99.90;;;;;;5081774;28;20087;-44
2023/12/22 04:12:04;;;;;;;4.15;1.02;;;4.40;99.90;;;;;;5081570;28;20048;-44
2023/12/22 04:14:30;;;;;;;9.25;1.20;;;4.40;99.90;;;;;;5083961;28;20075;-44
2023/12/22 04:16:57;;;;;;;6.78;1.27;;;4.40;99.90;;;;;;5087185;28;20075;-45
2023/12/22 04:19:22;;;;;;;10.18;1.65;;;4.40;99.90;;;;;;5081828;28;20166;-46
2023/12/22 04:21:48;;;;;;;8.70;2.00;;;4.40;99.90;;;;;;5083378;28;20036;-44
2023/12/22 04:24:14;;;;;;;11.43;1.67;;;4.50;99.90;;;;;;5083409;28;20062;-44
2023/12/22 04:26:39;;;;;;;8.13;1.90;;;4.50;99.90;;;;;;5084931;28;20051;-44
2023/12/22 04:29:05;;;;;;;11.18;1.90;;;4.50;99.90;;;;;;5065858;28;20048;-45
2023/12/22 04:31:31;;;;;;;13.88;2.67;;;4.50;99.90;;;;;;5084197;28;20042;-45
2023/12/22 04:33:56;;;;;;;16.80;2.30;;;4.40;99.90;;;;;;5088717;28;20047;-46
2023/12/22 04:36:22;;;;;;;12.18;2.65;;;4.50;99.90;;;;;;5081580;28;20087;-46
2023/12/22 04:38:48;;;;;;;12.77;2.63;;;4.50;99.90;;;;;;5079867;28;20044;-46
2023/12/22 04:41:13;;;;;;;18.65;2.97;;;4.60;99.90;;;;;;5080428;28;20040;-45
2023/12/22 04:43:39;;;;;;;12.85;3.17;;;4.70;99.90;;;;;;5089654;28;20032;-45
2023/12/22 04:46:04;;;;;;;14.50;2.55;;;4.80;99.90;;;;;;5085644;28;20036;-46
2023/12/22 04:48:30;;;;;;;12.30;2.25;;;4.80;99.90;;;;;;5079506;28;20067;-44
2023/12/22 04:50:56;;;;;;;18.27;2.78;;;4.90;99.90;;;;;;5085366;28;20543;-47
2023/12/22 04:53:21;;;;;;;18.20;3.08;;;5.00;99.90;;;;;;5079081;28;20408;-46
2023/12/22 04:55:47;;;;;;;18.98;2.95;;;5.10;99.90;;;;;;5079801;28;20127;-44
2023/12/22 04:58:12;;;;;;;19.20;2.92;;;5.10;99.90;;;;;;5079592;28;20047;-46
2023/12/22 05:00:38;;;;;;;18.27;3.00;;;5.20;99.90;;;;;;5057616;28;20043;-46
2023/12/22 05:03:04;;;;;;;17.50;2.95;;;5.20;99.90;;;;;;5075835;28;20066;-45
2023/12/22 05:05:29;;;;;;;17.50;3.30;;;5.30;99.90;;;;;;5074404;28;21607;-47
2023/12/22 05:07:55;;;;;;;14.95;2.38;;;5.40;99.90;;;;;;5074027;28;20412;-46
2023/12/22 05:10:20;;;;;;;18.70;3.08;;;5.40;99.90;;;;;;5077710;28;20036;-47
2023/12/22 05:12:46;;;;;;;22.77;3.70;;;5.50;99.90;;;;;;5077203;28;20044;-46
2023/12/22 05:15:11;;;;;;;18.88;2.92;;;5.50;99.90;;;;;;5077568;28;20051;-44
2023/12/22 05:17:37;;;;;;;20.02;4.45;;;5.50;99.90;;;;;;5075650;28;20627;-45
2023/12/22 05:20:03;;;;;;;18.13;3.05;;;5.50;99.90;;;;;;5078684;28;20032;-45
2023/12/22 05:22:30;;;;;;;19.52;3.08;;;5.60;99.90;;;;;;5077454;28;20071;-46
2023/12/22 05:24:57;;;;;;;17.30;3.25;;;5.60;99.90;;;;;;5079840;28;20044;-46
2023/12/22 05:27:22;;;;;;;19.58;3.22;;;5.70;99.90;;;;;;5078616;28;20780;-46
2023/12/22 05:29:48;;;;;;;15.20;3.85;;;5.70;99.90;;;;;;5079908;28;22316;-45
2023/12/22 05:32:13;;;;;;;16.75;3.00;;;5.70;99.90;;;;;;5078573;28;20105;-44
2023/12/22 05:34:39;;;;;;;19.08;3.75;;;5.70;99.90;;;;;;5077336;28;20127;-44
2023/12/22 05:37:05;;;;;;;15.73;3.17;;;5.80;99.90;;;;;;5076551;28;20507;-44
2023/12/22 05:39:31;;;;;;;18.67;2.83;;;5.80;99.90;;;;;;5081049;28;20134;-45
2023/12/22 05:41:57;;;;;;;16.80;3.17;;;5.80;99.90;;;;;;5076612;28;20077;-46
2023/12/22 05:44:24;;;;;;;17.25;3.30;;;5.90;99.90;;;;;;5074708;28;20039;-45
2023/12/22 05:46:50;;;;;;;17.63;3.17;;;5.90;99.90;;;;;;5081794;28;20052;-45
2023/12/22 05:49:16;;;;;;;19.13;3.58;;;5.90;99.90;;;;;;5074105;28;20082;-48
2023/12/22 05:51:41;;;;;;;18.35;3.38;;;6.00;99.90;;;;;;5077299;28;20036;-46
2023/12/22 05:54:08;;;;;;;16.80;2.75;;;6.00;99.90;;;;;;5075492;28;20772;-45
2023/12/22 05:56:34;;;;;;;19.98;3.00;;;6.00;99.90;;;;;;5073732;28;20028;-45
2023/12/22 05:59:00;;;;;;;17.33;3.55;;;6.10;99.90;;;;;;5078099;28;20042;-46
2023/12/22 06:01:25;;;;;;;19.95;3.65;;;6.10;99.90;;;;;;5077234;28;20097;-45
2023/12/22 06:03:51;;;;;;;18.75;3.15;;;6.10;99.90;;;;;;5079326;28;20028;-45
2023/12/22 06:06:18;;;;;;;19.00;3.42;;;6.10;99.90;;;;;;5078274;28;20052;-45
2023/12/22 06:08:44;;;;;;;19.20;3.33;;;6.10;99.90;;;;;;5081871;28;20036;-45
2023/12/22 06:11:09;;;;;;;21.05;3.92;;;6.10;99.90;;;;;;5085655;28;20032;-44
2023/12/22 06:13:35;;;;;;;20.48;4.13;;;6.10;99.90;;;;;;5081873;28;20516;-44
2023/12/22 06:16:01;;;;;;;21.90;3.53;;;6.10;99.90;;;;;;5085699;28;20032;-44
2023/12/22 06:18:26;;;;;;;19.58;3.60;;;6.10;99.90;;;;;;5080225;28;20039;-47
2023/12/22 06:20:52;;;;;;;16.92;3.20;;;6.20;99.90;;;;;;5088548;28;20481;-45
2023/12/22 06:23:18;;;;;;;17.10;3.20;;;6.20;99.90;;;;;;5087225;28;20043;-44
2023/12/22 06:25:46;;;;;;;19.00;3.15;;;6.30;99.90;;;;;;5086315;28;20097;-46
2023/12/22 06:28:12;;;;;;;16.48;3.42;;;6.30;99.90;;;;;;5081477;28;20078;-46
2023/12/22 06:30:37;;;;;;;15.32;3.65;;;6.30;99.90;;;;;;5076777;28;20604;-46
2023/12/22 06:33:03;;;;;;;16.70;3.92;;;6.40;99.90;;;;;;5076830;28;20067;-46
2023/12/22 06:35:31;;;;;;;18.55;2.85;;;6.40;99.90;;;;;;5082143;28;20056;-44
2023/12/22 06:38:01;;;;;;;18.83;3.38;;;6.40;99.90;;;;;;5078267;28;20528;-46
2023/12/22 06:40:26;;;;;;;20.38;2.60;;;6.40;99.90;;;;;;5075089;28;20048;-44
2023/12/22 06:42:52;;;;;;;19.85;3.58;;;6.40;99.90;;;;;;5079085;28;20051;-45
2023/12/22 06:45:17;;;;;;;16.88;3.05;;;6.50;99.90;;;;;;5077189;28;20130;-47
2023/12/22 06:47:43;;;;;;;15.23;3.10;;;6.40;99.90;;;;;;5081792;28;20068;-44
2023/12/22 06:50:09;;;;;;;16.15;3.67;;;6.40;99.90;;;;;;5081695;28;20122;-45
2023/12/22 06:52:34;;;;;;;15.48;2.65;;;6.40;99.90;;;;;;5079252;28;20040;-45
2023/12/22 06:55:00;;;;;;;16.90;2.78;;;6.50;99.90;;;;;;5079000;28;20135;-44
2023/12/22 06:57:26;;;;;;;16.33;3.08;;;6.40;99.90;;;;;;5081697;28;20481;-45
2023/12/22 06:59:51;;;;;;;13.80;2.80;;;6.50;99.90;;;;;;5075256;28;20040;-46
2023/12/22 07:02:17;;;;;;;17.30;3.30;;;6.50;99.90;;;;;;5079977;28;20036;-46
2023/12/22 07:05:22;;;;;;;16.08;2.88;;;6.50;99.90;;;;;;5076142;28;20084;-45
2023/12/22 07:07:48;;;;;;;20.77;3.53;;;6.50;99.90;;;;;;5063409;28;20052;-45
2023/12/22 07:10:13;;;;;;;15.00;2.75;;;6.50;99.90;;;;;;5076513;28;20501;-45
2023/12/22 07:12:39;;;;;;;19.13;3.67;;;6.60;99.90;;;;;;5077451;28;20074;-45
2023/12/22 07:15:06;;;;;;;14.50;2.90;;;6.60;99.90;;;;;;5082532;28;20643;-44
2023/12/22 07:17:33;;;;;;;20.02;3.45;;;6.60;99.90;;;;;;5078671;28;20094;-44
2023/12/22 07:19:58;;;;;;;26.45;3.70;;;6.50;99.90;;;;;;5061034;28;20078;-45
2023/12/22 07:22:24;;;;;;;20.40;3.25;;;6.50;99.90;;;;;;5078201;28;20587;-45
2023/12/22 07:24:52;;;;;;;23.25;3.80;;;6.50;99.90;;;;;;5083096;28;20036;-44
2023/12/22 07:27:18;;;;;;;22.60;3.92;;;6.40;99.90;;;;;;5081048;28;20047;-44
2023/12/22 07:29:43;;;;;;;17.38;3.53;;;6.40;99.90;;;;;;5079322;28;20044;-44
2023/12/22 07:32:09;;;;;;;20.05;3.45;;;6.40;99.90;;;;;;5073555;28;20139;-46
2023/12/22 07:34:35;;;;;;;27.25;4.43;;;6.30;99.90;;;;;;5079193;28;20048;-45
2023/12/22 07:37:01;;;;;;;25.35;3.97;;;6.30;99.90;;;;;;5078698;28;20463;-45
2023/12/22 07:39:26;;;;;;;24.20;3.75;;;6.30;99.90;;;;;;5083364;28;20052;-45
2023/12/22 07:41:52;;;;;;;18.63;3.58;;;6.30;99.90;;;;;;5077288;28;20066;-44
2023/12/22 07:44:18;;;;;;;24.77;4.38;;;6.30;99.90;;;;;;5076102;28;20054;-45
2023/12/22 07:46:43;;;;;;;16.20;3.35;;;6.30;99.90;;;;;;5085763;28;20047;-45
2023/12/22 07:49:09;;;;;;;25.05;4.07;;;6.30;99.90;;;;;;5066936;28;20572;-46
2023/12/22 07:51:34;;;;;;;21.02;3.83;;;6.30;99.90;;;;;;5082573;28;20047;-47
2023/12/22 07:54:00;;;;;;;17.27;3.92;;;6.30;99.90;;;;;;5085655;28;20036;-45
2023/12/22 07:56:26;;;;;;;17.67;3.33;;;6.30;99.90;;;;;;5087099;28;20066;-46
2023/12/22 07:58:51;;;;;;;20.65;3.50;;;6.30;99.90;;;;;;5082289;28;20036;-47
2023/12/22 08:01:17;;;;;;;17.70;2.97;;;6.30;99.90;;;;;;5083499;28;20413;-45
2023/12/22 08:03:42;;;;;;;19.60;3.28;;;6.40;99.90;;;;;;5081882;28;20036;-44
2023/12/22 08:06:08;;;;;;;17.33;2.65;;;6.40;99.90;;;;;;5068486;28;20036;-48
2023/12/22 08:08:34;;;;;;;15.85;2.95;;;6.30;99.90;;;;;;5081863;28;20043;-49
2023/12/22 08:11:00;;;;;;;17.80;3.50;;;6.30;99.90;;;;;;5086026;28;20074;-45
2023/12/22 08:13:25;;;;;;;18.45;3.15;;;6.30;99.90;;;;;;5083820;28;20438;-45
2023/12/22 08:15:51;;;;;;;18.42;3.35;;;6.30;99.90;;;;;;5089753;28;20076;-45
2023/12/22 08:18:16;;;;;;;16.63;3.75;;;6.30;99.90;;;;;;5086328;28;20044;-45
2023/12/22 08:20:42;;;;;;;19.40;3.45;;;6.30;99.90;;;;;;5089790;28;20115;-45
2023/12/22 08:23:08;;;;;;;15.82;3.22;;;6.30;99.90;;;;;;5087622;28;20789;-45
2023/12/22 08:25:34;;;;;;;21.38;2.80;;;6.30;99.90;;;;;;5087480;28;20032;-45
2023/12/22 08:28:01;;;;;;;18.20;3.47;;;6.30;99.90;;;;;;5089987;28;20086;-46
2023/12/22 08:30:26;;;;;;;17.90;3.08;;;6.30;99.90;;;;;;5092305;28;20086;-46
2023/12/22 08:32:53;;;;;;;16.15;2.80;;;6.30;99.90;;;;;;5092507;28;20067;-45
2023/12/22 08:35:19;;;;;;;16.42;2.80;;;6.30;99.90;;;;;;5092416;28;20043;-46
2023/12/22 08:37:44;;;;;;;13.88;2.85;;;6.40;99.90;;;;;;5091773;28;20052;-45
2023/12/22 08:40:10;;;;;;;16.05;3.08;;;6.40;99.90;;;;;;5091570;28;20386;-45
2023/12/22 08:42:36;;;;;;;17.48;2.80;;;6.40;99.90;;;;;;5090595;28;20111;-45
2023/12/22 08:45:02;;;;;;;16.88;2.83;;;6.50;99.90;;;;;;5092964;28;20032;-45
2023/12/22 08:47:28;;;;;;;13.63;2.28;;;6.60;99.90;;;;;;5092982;28;20048;-45
2023/12/22 08:49:53;;;;;;;13.50;2.65;;;6.60;99.90;;;;;;5095260;28;20105;-45
2023/12/22 08:52:19;;;;;;;17.70;2.83;;;6.60;99.90;;;;;;5094927;28;20044;-48
2023/12/22 08:54:44;;;;;;;12.32;2.45;;;6.60;99.90;;;;;;5092365;28;20062;-46
2023/12/22 08:57:10;;;;;;;11.45;2.58;;;6.60;99.90;;;;;;5075498;28;20463;-49
2023/12/22 08:59:36;;;;;;;10.70;2.20;;;6.70;99.90;;;;;;5073270;28;20043;-45
2023/12/22 09:02:02;;;;;;;15.07;2.63;;;6.70;99.90;;;;;;5092846;28;20401;-45
2023/12/22 09:04:27;;;;;;;11.45;2.10;;;6.70;99.90;;;;;;5090949;28;20136;-47
2023/12/22 09:06:53;;;;;;;12.48;2.60;;;6.70;99.90;;;;;;5093488;28;20051;-46
2023/12/22 09:09:19;;;;;;;8.05;2.05;;;6.70;99.90;;;;;;5093907;28;20131;-45
2023/12/22 09:11:44;;;;;;;12.07;2.53;;;6.70;99.90;;;;;;5092049;28;20354;-45
2023/12/22 09:14:10;;;;;;;13.65;2.35;;;6.70;99.90;;;;;;5094550;28;20394;-46
2023/12/22 09:16:36;;;;;;;8.93;1.98;;;6.80;99.90;;;;;;5092389;28;20482;-46
2023/12/22 09:19:02;;;;;;;13.25;2.85;;;6.80;99.90;;;;;;5090893;28;20403;-48
2023/12/22 09:21:28;;;;;;;11.02;2.55;;;6.80;99.90;;;;;;5092354;28;20048;-45
2023/12/22 09:23:54;;;;;;;9.25;2.13;;;6.80;99.90;;;;;;5092567;28;20127;-45
2023/12/22 09:26:20;;;;;;;12.18;2.20;;;6.90;99.90;;;;;;5089275;28;20134;-45
2023/12/22 09:28:46;;;;;;;11.63;2.38;;;6.90;99.90;;;;;;5092016;28;20121;-45
2023/12/22 09:31:14;;;;;;;11.02;2.40;;;7.00;99.90;;;;;;5090380;28;20040;-46
2023/12/22 09:33:41;;;;;;;9.68;1.65;;;7.00;99.90;;;;;;5091352;28;20050;-45
2023/12/22 09:36:08;;;;;;;10.93;2.40;;;7.10;99.90;;;;;;5091772;28;20066;-45
2023/12/22 09:38:33;;;;;;;10.68;2.45;;;7.00;99.90;;;;;;5091005;28;20052;-46
2023/12/22 09:41:01;;;;;;;6.63;1.45;;;7.00;99.90;;;;;;5075659;28;20048;-44
2023/12/22 09:43:26;;;;;;;6.30;1.90;;;7.00;99.90;;;;;;5093612;28;20044;-46
2023/12/22 09:45:52;;;;;;;10.02;1.83;;;7.00;99.90;;;;;;5093998;28;20063;-44
2023/12/22 09:48:26;;;;;;;8.48;2.17;;;6.90;99.90;;;;;;5093577;28;20374;-45
2023/12/22 09:50:52;;;;;;;9.98;2.00;;;6.90;99.90;;;;;;5089498;28;20494;-45
2023/12/22 09:53:20;;;;;;;12.77;2.40;;;6.90;99.90;;;;;;5073181;28;20055;-45
2023/12/22 09:55:46;;;;;;;9.10;1.67;;;6.90;99.90;;;;;;5075689;28;20135;-47
2023/12/22 09:58:16;;;;;;;10.68;2.00;;;6.90;99.90;;;;;;5092837;28;20507;-44
2023/12/22 10:00:43;;;;;;;12.55;2.15;;;6.90;99.90;;;;;;5093615;28;20082;-48
2023/12/22 10:03:11;;;;;;;10.57;2.28;;;6.80;99.90;;;;;;5093599;28;20115;-46
2023/12/22 10:05:37;;;;;;;12.05;2.00;;;6.80;99.90;;;;;;5091390;28;20405;-45
2023/12/22 10:08:05;;;;;;;11.90;2.05;;;6.80;99.90;;;;;;5092233;28;20036;-45
2023/12/22 10:10:32;;;;;;;10.45;2.00;;;6.70;99.90;;;;;;5072901;28;20084;-49
2023/12/22 10:12:59;;;;;;;10.38;2.47;;;6.80;99.90;;;;;;5072521;28;20046;-45
2023/12/22 10:15:25;;;;;;;10.30;2.10;;;6.70;99.90;;;;;;5073037;28;20071;-45
2023/12/22 10:17:52;;;;;;;12.05;2.28;;;6.70;99.90;;;;;;5071403;28;20048;-45
2023/12/22 10:20:18;;;;;;;11.10;2.08;;;6.70;99.90;;;;;;5092674;28;20040;-44
2023/12/22 10:22:43;;;;;;;12.02;2.42;;;6.70;99.90;;;;;;5091718;28;20389;-45
2023/12/22 10:25:09;;;;;;;11.93;2.50;;;6.70;99.90;;;;;;5090425;28;20421;-46
2023/12/22 10:27:38;;;;;;;13.02;2.25;;;6.60;99.90;;;;;;5091623;28;20044;-46
2023/12/22 10:30:04;;;;;;;12.10;2.72;;;6.70;99.90;;;;;;5091623;28;20040;-45
2023/12/22 10:32:30;;;;;;;17.23;2.58;;;6.70;99.90;;;;;;5091320;28;20079;-45
2023/12/22 10:34:58;;;;;;;9.75;2.00;;;6.60;99.90;;;;;;5091405;28;20082;-46
2023/12/22 10:37:24;;;;;;;13.48;2.50;;;6.60;99.90;;;;;;5091148;28;20067;-45
2023/12/22 10:39:54;;;;;;;11.57;2.20;;;6.70;99.90;;;;;;5090992;28;20127;-45
2023/12/22 10:42:20;;;;;;;7.82;1.77;;;6.70;99.90;;;;;;5065854;28;20044;-47
2023/12/22 10:44:47;;;;;;;9.77;2.10;;;6.70;99.90;;;;;;5083202;28;20083;-45
2023/12/22 10:47:13;;;;;;;14.17;2.20;;;6.70;99.90;;;;;;5092501;28;20048;-46
2023/12/22 10:49:39;;;;;;;10.13;1.83;;;6.70;99.90;;;;;;5091666;28;20101;-45
2023/12/22 10:52:05;;;;;;;6.10;1.80;;;6.70;99.90;;;;;;5092186;28;20040;-46
2023/12/22 10:54:31;;;;;;;5.82;1.77;;;6.70;99.90;;;;;;5091017;28;20086;-46
2023/12/22 10:57:00;;;;;;;7.68;1.60;;;6.70;99.90;;;;;;5092089;28;20048;-45
2023/12/22 10:59:32;;;;;;;5.22;1.67;;;6.70;99.90;;;;;;5094155;28;20067;-48
2023/12/22 11:01:58;;;;;;;5.55;1.30;;;6.80;99.90;;;;;;5091356;28;20122;-45
2023/12/22 11:04:35;;;;;;;3.30;0.90;;;6.80;99.90;;;;;;5073750;28;20060;-45
2023/12/22 11:07:03;;;;;;;4.57;1.20;;;6.80;99.90;;;;;;5071754;28;20111;-46
2023/12/22 11:09:32;;;;;;;4.13;1.05;;;6.80;99.90;;;;;;5090517;28;20117;-45
2023/12/22 11:12:00;;;;;;;4.60;1.13;;;6.80;99.90;;;;;;5090996;28;20119;-45
2023/12/22 11:14:27;;;;;;;4.40;1.10;;;6.80;99.90;;;;;;5083025;28;20040;-45
2023/12/22 11:16:54;;;;;;;1.75;0.90;;;6.90;99.90;;;;;;5078695;28;20044;-45
2023/12/22 11:19:22;;;;;;;3.45;0.85;;;6.90;99.90;;;;;;5067634;28;20047;-45
2023/12/22 11:21:50;;;;;;;2.90;1.20;;;6.90;99.90;;;;;;5068977;28;20047;-46
2023/12/22 11:24:17;;;;;;;4.78;0.88;;;7.00;99.90;;;;;;5088464;28;20409;-45
2023/12/22 11:26:45;;;;;;;3.70;0.95;;;7.00;99.90;;;;;;5092241;28;20036;-45
2023/12/22 11:29:12;;;;;;;5.03;1.08;;;7.00;99.90;;;;;;5091570;28;20090;-45
2023/12/22 11:31:40;;;;;;;3.15;0.98;;;7.00;99.90;;;;;;5092037;28;20115;-45
2023/12/22 11:34:07;;;;;;;2.80;0.70;;;7.00;99.90;;;;;;5087286;28;20047;-46
2023/12/22 11:36:36;;;;;;;2.08;0.65;;;7.00;99.90;;;;;;5091099;28;20040;-45
2023/12/22 11:39:02;;;;;;;3.78;0.80;;;7.00;99.90;;;;;;5090570;28;20028;-46
2023/12/22 11:41:32;;;;;;;2.95;0.50;;;7.00;99.90;;;;;;5088608;28;20063;-46
2023/12/22 11:43:59;;;;;;;2.67;1.00;;;7.00;99.90;;;;;;5085976;28;20040;-46
2023/12/22 11:46:24;;;;;;;2.00;0.60;;;7.10;99.90;;;;;;5085328;28;20155;-45
2023/12/22 11:48:52;;;;;;;3.78;0.68;;;7.00;99.90;;;;;;5090252;28;20174;-45
2023/12/22 11:51:19;;;;;;;2.38;0.50;;;7.00;99.90;;;;;;5085967;28;20032;-44
2023/12/22 11:53:45;;;;;;;4.93;0.70;;;7.10;99.90;;;;;;5090672;28;20386;-45
2023/12/22 11:56:12;;;;;;;1.70;0.60;;;7.10;99.90;;;;;;5089163;28;20040;-45
2023/12/22 11:58:42;;;;;;;3.45;0.70;;;7.10;99.90;;;;;;5089091;28;20037;-45
2023/12/22 12:01:12;;;;;;;4.38;0.85;;;7.10;99.90;;;;;;5092026;28;20048;-45
2023/12/22 12:04:01;;;;;;;1.92;0.65;;;7.10;99.90;;;;;;5095330;28;20077;-48
2023/12/22 12:06:30;;;;;;;4.78;0.70;;;7.10;99.90;;;;;;5088333;28;20058;-45
2023/12/22 12:09:04;;;;;;;2.25;0.60;;;7.10;99.90;;;;;;5085086;28;20657;-44
2023/12/22 12:11:58;;;;;;;2.22;0.52;;;7.10;99.90;;;;;;5087437;28;20083;-45
2023/12/22 12:14:31;;;;;;;1.38;0.45;;;7.10;99.90;;;;;;5067337;28;20056;-45
2023/12/22 12:17:12;;;;;;;5.30;0.80;;;7.00;99.90;;;;;;5090786;28;20184;-47
2023/12/22 12:19:39;;;;;;;3.70;0.60;;;7.00;99.90;;;;;;5090043;28;20055;-49
2023/12/22 12:22:05;;;;;;;4.70;0.80;;;7.10;99.90;;;;;;5091603;28;20067;-48
2023/12/22 12:24:31;;;;;;;3.28;0.82;;;7.10;99.90;;;;;;5090448;28;20078;-45
2023/12/22 12:26:57;;;;;;;2.75;0.55;;;7.10;99.90;;;;;;5091292;28;20036;-45
2023/12/22 12:29:22;;;;;;;2.20;0.50;;;7.10;99.90;;;;;;5090118;28;20121;-46
2023/12/22 12:31:48;;;;;;;3.03;0.60;;;7.10;99.90;;;;;;5090353;28;20119;-46
2023/12/22 12:34:17;;;;;;;5.07;0.90;;;7.10;99.90;;;;;;5089931;28;20036;-46
2023/12/22 12:36:43;;;;;;;2.72;0.50;;;7.10;99.90;;;;;;5093608;28;20046;-46
2023/12/22 12:39:13;;;;;;;1.42;0.40;;;7.10;99.90;;;;;;5094232;28;20447;-45
2023/12/22 12:41:46;;;;;;;2.63;0.60;;;7.10;99.90;;;;;;5089346;28;20098;-45
2023/12/22 12:44:12;;;;;;;4.80;0.70;;;7.10;99.90;;;;;;5083283;28;20039;-45
2023/12/22 12:46:39;;;;;;;3.35;0.73;;;7.10;99.90;;;;;;5091675;28;20051;-45